sensor_id;sensor_type;location;lat;lon;timestamp;temperature;humidity
2300;DHT22;1158;48.750;9.078;2023-05-07T00:00:23;9.50;99.90
2300;DHT22;1158;48.750;9.078;2023-05-07T00:02:51;9.50;99.90
2300;DHT22;1158;48.750;9.078;2023-05-07T00:05:18;9.40;99.90
2300;DHT22;1158;48.750;9.078;2023-05-07T00:07:45;9.40;99.90
2300;DHT22;1158;48.750;9.078;2023-05-07T00:10:11;9.40;99.90
2300;DHT22;1158;48.750;9.078;2023-05-07T00:12:40;9.40;99.90
2300;DHT22;1158;48.750;9.078;2023-05-07T00:15:07;9.40;99.90
2300;DHT22;1158;48.750;9.078;2023-05-07T00:17:34;9.40;99.90
2300;DHT22;1158;48.750;9.078;2023-05-07T00:20:01;9.40;99.90
2300;DHT22;1158;48.750;9.078;2023-05-07T00:22:29;9.40;99.90
2300;DHT22;1158;48.750;9.078;2023-05-07T00:24:56;9.40;99.90
2300;DHT22;1158;48.750;9.078;2023-05-07T00:27:23;9.30;99.90
2300;DHT22;1158;48.750;9.078;2023-05-07T00:29:51;9.30;99.90
2300;DHT22;1158;48.750;9.078;2023-05-07T00:32:18;9.30;99.90
2300;DHT22;1158;48.750;9.078;2023-05-07T00:34:44;9.30;99.90
2300;DHT22;1158;48.750;9.078;2023-05-07T00:37:11;9.30;99.90
2300;DHT22;1158;48.750;9.078;2023-05-07T00:39:38;9.30;99.90
2300;DHT22;1158;48.750;9.078;2023-05-07T00:42:04;9.30;99.90
2300;DHT22;1158;48.750;9.078;2023-05-07T00:44:31;9.30;99.90
2300;DHT22;1158;48.750;9.078;2023-05-07T00:47:02;9.30;99.90
2300;DHT22;1158;48.750;9.078;2023-05-07T00:49:37;9.20;99.90
2300;DHT22;1158;48.750;9.078;2023-05-07T00:52:05;9.20;99.90
2300;DHT22;1158;48.750;9.078;2023-05-07T00:54:33;9.20;99.90
2300;DHT22;1158;48.750;9.078;2023-05-07T00:57:02;9.30;99.90
2300;DHT22;1158;48.750;9.078;2023-05-07T00:59:29;9.30;99.90
2300;DHT22;1158;48.750;9.078;2023-05-07T01:01:56;9.30;99.90
2300;DHT22;1158;48.750;9.078;2023-05-07T01:04:24;9.30;99.90
2300;DHT22;1158;48.750;9.078;2023-05-07T01:06:52;9.20;99.90
2300;DHT22;1158;48.750;9.078;2023-05-07T01:09:20;9.20;99.90
2300;DHT22;1158;48.750;9.078;2023-05-07T01:11:47;9.20;99.90
2300;DHT22;1158;48.750;9.078;2023-05-07T01:14:15;9.20;99.90
2300;DHT22;1158;48.750;9.078;2023-05-07T01:16:42;9.20;99.90
2300;DHT22;1158;48.750;9.078;2023-05-07T01:19:09;9.20;99.90
2300;DHT22;1158;48.750;9.078;2023-05-07T01:21:43;9.20;99.90
2300;DHT22;1158;48.750;9.078;2023-05-07T01:24:12;9.20;99.90
2300;DHT22;1158;48.750;9.078;2023-05-07T01:26:42;9.10;99.90
2300;DHT22;1158;48.750;9.078;2023-05-07T01:29:09;9.20;99.90
2300;DHT22;1158;48.750;9.078;2023-05-07T01:31:36;9.20;99.90
2300;DHT22;1158;48.750;9.078;2023-05-07T01:34:04;9.10;99.90
2300;DHT22;1158;48.750;9.078;2023-05-07T01:36:32;9.20;99.90
2300;DHT22;1158;48.750;9.078;2023-05-07T01:38:59;9.10;99.90
2300;DHT22;1158;48.750;9.078;2023-05-07T01:41:28;9.10;99.90
2300;DHT22;1158;48.750;9.078;2023-05-07T01:43:55;9.10;99.90
2300;DHT22;1158;48.750;9.078;2023-05-07T01:46:23;9.10;99.90
2300;DHT22;1158;48.750;9.078;2023-05-07T01:48:51;9.10;99.90
2300;DHT22;1158;48.750;9.078;2023-05-07T01:51:17;9.10;99.90
2300;DHT22;1158;48.750;9.078;2023-05-07T01:53:45;9.10;99.90
2300;DHT22;1158;48.750;9.078;2023-05-07T01:56:16;9.10;99.90
2300;DHT22;1158;48.750;9.078;2023-05-07T01:58:44;9.10;99.90
2300;DHT22;1158;48.750;9.078;2023-05-07T02:01:11;9.10;99.90
2300;DHT22;1158;48.750;9.078;2023-05-07T02:03:38;9.20;99.90
2300;DHT22;1158;48.750;9.078;2023-05-07T02:06:05;9.20;99.90
2300;DHT22;1158;48.750;9.078;2023-05-07T02:08:31;9.20;99.90
2300;DHT22;1158;48.750;9.078;2023-05-07T02:10:58;9.30;99.90
2300;DHT22;1158;48.750;9.078;2023-05-07T02:13:26;9.30;99.90
2300;DHT22;1158;48.750;9.078;2023-05-07T02:15:54;9.40;99.90
2300;DHT22;1158;48.750;9.078;2023-05-07T02:18:21;9.40;99.90
2300;DHT22;1158;48.750;9.078;2023-05-07T02:20:48;9.40;99.90
2300;DHT22;1158;48.750;9.078;2023-05-07T02:23:14;9.40;99.90
2300;DHT22;1158;48.750;9.078;2023-05-07T02:25:41;9.40;99.90
2300;DHT22;1158;48.750;9.078;2023-05-07T02:28:08;9.40;99.90
2300;DHT22;1158;48.750;9.078;2023-05-07T02:30:36;9.50;99.90
2300;DHT22;1158;48.750;9.078;2023-05-07T02:33:05;9.40;99.90
2300;DHT22;1158;48.750;9.078;2023-05-07T02:35:32;9.40;99.90
2300;DHT22;1158;48.750;9.078;2023-05-07T02:37:59;9.40;99.90
2300;DHT22;1158;48.750;9.078;2023-05-07T02:40:26;9.40;99.90
2300;DHT22;1158;48.750;9.078;2023-05-07T02:42:52;9.30;99.90
2300;DHT22;1158;48.750;9.078;2023-05-07T02:45:19;9.30;99.90
2300;DHT22;1158;48.750;9.078;2023-05-07T02:47:46;9.20;99.90
2300;DHT22;1158;48.750;9.078;2023-05-07T02:50:14;9.20;99.90
2300;DHT22;1158;48.750;9.078;2023-05-07T02:52:41;9.10;99.90
2300;DHT22;1158;48.750;9.078;2023-05-07T02:55:08;9.10;99.90
2300;DHT22;1158;48.750;9.078;2023-05-07T02:57:35;9.10;99.90
2300;DHT22;1158;48.750;9.078;2023-05-07T03:00:11;9.10;99.90
2300;DHT22;1158;48.750;9.078;2023-05-07T03:02:38;9.00;99.90
2300;DHT22;1158;48.750;9.078;2023-05-07T03:05:06;9.00;99.90
2300;DHT22;1158;48.750;9.078;2023-05-07T03:07:34;8.90;99.90
2300;DHT22;1158;48.750;9.078;2023-05-07T03:10:01;8.90;99.90
2300;DHT22;1158;48.750;9.078;2023-05-07T03:12:28;8.90;99.90
2300;DHT22;1158;48.750;9.078;2023-05-07T03:14:54;8.80;99.90
2300;DHT22;1158;48.750;9.078;2023-05-07T03:17:21;8.80;99.90
2300;DHT22;1158;48.750;9.078;2023-05-07T03:19:48;8.70;99.90
2300;DHT22;1158;48.750;9.078;2023-05-07T03:22:15;8.70;99.90
2300;DHT22;1158;48.750;9.078;2023-05-07T03:24:43;8.60;99.90
2300;DHT22;1158;48.750;9.078;2023-05-07T03:27:10;8.60;99.90
2300;DHT22;1158;48.750;9.078;2023-05-07T03:29:36;8.50;99.90
2300;DHT22;1158;48.750;9.078;2023-05-07T03:32:04;8.50;99.90
2300;DHT22;1158;48.750;9.078;2023-05-07T03:34:31;8.50;99.90
2300;DHT22;1158;48.750;9.078;2023-05-07T03:36:57;8.40;99.90
2300;DHT22;1158;48.750;9.078;2023-05-07T03:39:24;8.40;99.90
2300;DHT22;1158;48.750;9.078;2023-05-07T03:41:52;8.40;99.90
2300;DHT22;1158;48.750;9.078;2023-05-07T03:44:19;8.30;99.90
2300;DHT22;1158;48.750;9.078;2023-05-07T03:46:46;8.30;99.90
2300;DHT22;1158;48.750;9.078;2023-05-07T03:49:12;8.30;99.90
2300;DHT22;1158;48.750;9.078;2023-05-07T03:51:39;8.20;99.90
2300;DHT22;1158;48.750;9.078;2023-05-07T03:54:06;8.20;99.90
2300;DHT22;1158;48.750;9.078;2023-05-07T03:56:33;8.20;99.90
2300;DHT22;1158;48.750;9.078;2023-05-07T03:59:01;8.20;99.90
2300;DHT22;1158;48.750;9.078;2023-05-07T04:01:28;8.10;99.90
2300;DHT22;1158;48.750;9.078;2023-05-07T04:03:55;8.20;99.90
2300;DHT22;1158;48.750;9.078;2023-05-07T04:06:21;8.20;99.90
2300;DHT22;1158;48.750;9.078;2023-05-07T04:08:48;8.10;99.90
2300;DHT22;1158;48.750;9.078;2023-05-07T04:11:15;8.10;99.90
2300;DHT22;1158;48.750;9.078;2023-05-07T04:13:41;8.10;99.90
2300;DHT22;1158;48.750;9.078;2023-05-07T04:16:10;8.10;99.90
2300;DHT22;1158;48.750;9.078;2023-05-07T04:18:36;8.10;99.90
2300;DHT22;1158;48.750;9.078;2023-05-07T04:21:03;8.10;99.90
2300;DHT22;1158;48.750;9.078;2023-05-07T04:23:30;8.20;99.90
2300;DHT22;1158;48.750;9.078;2023-05-07T04:25:57;8.20;99.90
2300;DHT22;1158;48.750;9.078;2023-05-07T04:28:24;8.20;99.90
2300;DHT22;1158;48.750;9.078;2023-05-07T04:30:51;8.20;99.90
2300;DHT22;1158;48.750;9.078;2023-05-07T04:33:19;8.20;99.90
2300;DHT22;1158;48.750;9.078;2023-05-07T04:35:45;8.30;99.90
2300;DHT22;1158;48.750;9.078;2023-05-07T04:38:12;8.30;99.90
2300;DHT22;1158;48.750;9.078;2023-05-07T04:40:39;8.30;99.90
2300;DHT22;1158;48.750;9.078;2023-05-07T04:43:06;8.30;99.90
2300;DHT22;1158;48.750;9.078;2023-05-07T04:45:34;8.40;99.90
2300;DHT22;1158;48.750;9.078;2023-05-07T04:48:01;8.40;99.90
2300;DHT22;1158;48.750;9.078;2023-05-07T04:50:30;8.40;99.90
2300;DHT22;1158;48.750;9.078;2023-05-07T04:52:56;8.40;99.90
2300;DHT22;1158;48.750;9.078;2023-05-07T04:55:23;8.40;99.90
2300;DHT22;1158;48.750;9.078;2023-05-07T04:57:50;8.40;99.90
2300;DHT22;1158;48.750;9.078;2023-05-07T05:00:17;8.40;99.90
2300;DHT22;1158;48.750;9.078;2023-05-07T05:02:45;8.50;99.90
2300;DHT22;1158;48.750;9.078;2023-05-07T05:05:11;8.60;99.90
2300;DHT22;1158;48.750;9.078;2023-05-07T05:07:39;8.70;99.90
2300;DHT22;1158;48.750;9.078;2023-05-07T05:10:06;8.70;99.90
2300;DHT22;1158;48.750;9.078;2023-05-07T05:12:33;8.80;99.90
2300;DHT22;1158;48.750;9.078;2023-05-07T05:15:00;8.80;99.90
2300;DHT22;1158;48.750;9.078;2023-05-07T05:17:27;8.80;99.90
2300;DHT22;1158;48.750;9.078;2023-05-07T05:19:53;9.00;99.90
2300;DHT22;1158;48.750;9.078;2023-05-07T05:22:20;9.30;99.90
2300;DHT22;1158;48.750;9.078;2023-05-07T05:24:48;9.60;99.90
2300;DHT22;1158;48.750;9.078;2023-05-07T05:27:15;9.90;99.90
2300;DHT22;1158;48.750;9.078;2023-05-07T05:29:45;10.20;99.90
2300;DHT22;1158;48.750;9.078;2023-05-07T05:32:12;10.30;99.90
2300;DHT22;1158;48.750;9.078;2023-05-07T05:34:38;10.60;99.90
2300;DHT22;1158;48.750;9.078;2023-05-07T05:37:05;10.90;99.90
2300;DHT22;1158;48.750;9.078;2023-05-07T05:39:32;11.60;99.90
2300;DHT22;1158;48.750;9.078;2023-05-07T05:42:00;12.90;99.90
2300;DHT22;1158;48.750;9.078;2023-05-07T05:44:27;14.80;99.90
2300;DHT22;1158;48.750;9.078;2023-05-07T05:46:54;16.40;99.90
2300;DHT22;1158;48.750;9.078;2023-05-07T05:49:22;17.90;99.90
2300;DHT22;1158;48.750;9.078;2023-05-07T05:51:49;18.40;99.90
2300;DHT22;1158;48.750;9.078;2023-05-07T05:54:16;19.50;99.90
2300;DHT22;1158;48.750;9.078;2023-05-07T05:56:48;20.60;99.90
2300;DHT22;1158;48.750;9.078;2023-05-07T05:59:19;21.40;99.90
2300;DHT22;1158;48.750;9.078;2023-05-07T06:01:45;22.00;99.90
2300;DHT22;1158;48.750;9.078;2023-05-07T06:04:12;22.00;99.90
2300;DHT22;1158;48.750;9.078;2023-05-07T06:06:39;22.30;99.90
2300;DHT22;1158;48.750;9.078;2023-05-07T06:09:05;23.00;99.60
2300;DHT22;1158;48.750;9.078;2023-05-07T06:11:40;23.40;98.20
2300;DHT22;1158;48.750;9.078;2023-05-07T06:14:09;23.20;98.20
2300;DHT22;1158;48.750;9.078;2023-05-07T06:16:37;23.60;98.00
2300;DHT22;1158;48.750;9.078;2023-05-07T06:19:04;23.30;97.40
2300;DHT22;1158;48.750;9.078;2023-05-07T06:21:31;22.30;97.50
2300;DHT22;1158;48.750;9.078;2023-05-07T06:23:57;21.50;99.10
2300;DHT22;1158;48.750;9.078;2023-05-07T06:26:24;21.50;99.60
2300;DHT22;1158;48.750;9.078;2023-05-07T06:28:51;21.30;98.50
2300;DHT22;1158;48.750;9.078;2023-05-07T06:31:19;20.30;98.90
2300;DHT22;1158;48.750;9.078;2023-05-07T06:33:48;19.40;99.90
2300;DHT22;1158;48.750;9.078;2023-05-07T06:36:15;18.50;99.90
2300;DHT22;1158;48.750;9.078;2023-05-07T06:38:42;18.20;99.90
2300;DHT22;1158;48.750;9.078;2023-05-07T06:41:08;18.00;99.90
2300;DHT22;1158;48.750;9.078;2023-05-07T06:43:35;17.80;99.90
2300;DHT22;1158;48.750;9.078;2023-05-07T06:46:02;17.70;99.90
2300;DHT22;1158;48.750;9.078;2023-05-07T06:48:29;19.10;99.90
2300;DHT22;1158;48.750;9.078;2023-05-07T06:50:57;20.50;99.80
2300;DHT22;1158;48.750;9.078;2023-05-07T06:53:24;20.90;98.80
2300;DHT22;1158;48.750;9.078;2023-05-07T06:55:51;21.10;98.50
2300;DHT22;1158;48.750;9.078;2023-05-07T06:58:18;21.50;98.00
2300;DHT22;1158;48.750;9.078;2023-05-07T07:00:45;22.10;97.90
2300;DHT22;1158;48.750;9.078;2023-05-07T07:03:11;22.90;96.90
2300;DHT22;1158;48.750;9.078;2023-05-07T07:05:40;23.30;96.60
2300;DHT22;1158;48.750;9.078;2023-05-07T07:08:09;23.80;96.10
2300;DHT22;1158;48.750;9.078;2023-05-07T07:10:36;23.10;96.10
2300;DHT22;1158;48.750;9.078;2023-05-07T07:13:03;22.60;96.60
2300;DHT22;1158;48.750;9.078;2023-05-07T07:15:30;22.30;97.10
2300;DHT22;1158;48.750;9.078;2023-05-07T07:17:57;22.30;97.50
2300;DHT22;1158;48.750;9.078;2023-05-07T07:20:24;22.40;97.70
2300;DHT22;1158;48.750;9.078;2023-05-07T07:22:53;23.30;96.80
2300;DHT22;1158;48.750;9.078;2023-05-07T07:25:22;23.50;96.90
2300;DHT22;1158;48.750;9.078;2023-05-07T07:27:49;23.80;96.40
2300;DHT22;1158;48.750;9.078;2023-05-07T07:30:16;24.30;95.40
2300;DHT22;1158;48.750;9.078;2023-05-07T07:32:42;24.60;95.70
2300;DHT22;1158;48.750;9.078;2023-05-07T07:35:09;24.80;95.30
2300;DHT22;1158;48.750;9.078;2023-05-07T07:37:36;24.80;95.10
2300;DHT22;1158;48.750;9.078;2023-05-07T07:40:03;25.10;94.10
2300;DHT22;1158;48.750;9.078;2023-05-07T07:42:31;25.40;94.40
2300;DHT22;1158;48.750;9.078;2023-05-07T07:44:58;25.50;94.10
2300;DHT22;1158;48.750;9.078;2023-05-07T07:47:25;25.40;93.90
2300;DHT22;1158;48.750;9.078;2023-05-07T07:49:52;25.20;94.10
2300;DHT22;1158;48.750;9.078;2023-05-07T07:52:19;25.40;94.20
2300;DHT22;1158;48.750;9.078;2023-05-07T07:54:45;25.30;93.40
2300;DHT22;1158;48.750;9.078;2023-05-07T07:57:12;24.90;94.40
2300;DHT22;1158;48.750;9.078;2023-05-07T07:59:40;24.60;94.30
2300;DHT22;1158;48.750;9.078;2023-05-07T08:02:08;24.10;95.20
2300;DHT22;1158;48.750;9.078;2023-05-07T08:04:35;24.00;95.10
2300;DHT22;1158;48.750;9.078;2023-05-07T08:07:02;24.20;94.90
2300;DHT22;1158;48.750;9.078;2023-05-07T08:09:29;24.50;95.10
2300;DHT22;1158;48.750;9.078;2023-05-07T08:12:02;25.20;94.30
2300;DHT22;1158;48.750;9.078;2023-05-07T08:14:35;25.70;93.70
2300;DHT22;1158;48.750;9.078;2023-05-07T08:17:03;26.30;92.80
2300;DHT22;1158;48.750;9.078;2023-05-07T08:19:30;26.40;92.30
2300;DHT22;1158;48.750;9.078;2023-05-07T08:21:57;27.00;91.90
2300;DHT22;1158;48.750;9.078;2023-05-07T08:24:24;28.00;91.50
2300;DHT22;1158;48.750;9.078;2023-05-07T08:26:50;28.10;91.20
2300;DHT22;1158;48.750;9.078;2023-05-07T08:29:17;27.90;90.30
2300;DHT22;1158;48.750;9.078;2023-05-07T08:31:44;27.90;90.50
2300;DHT22;1158;48.750;9.078;2023-05-07T08:34:12;27.80;89.70
2300;DHT22;1158;48.750;9.078;2023-05-07T08:36:38;26.90;91.50
2300;DHT22;1158;48.750;9.078;2023-05-07T08:39:07;27.30;91.80
2300;DHT22;1158;48.750;9.078;2023-05-07T08:41:34;27.60;90.80
2300;DHT22;1158;48.750;9.078;2023-05-07T08:44:03;27.30;91.10
2300;DHT22;1158;48.750;9.078;2023-05-07T08:46:31;27.90;89.50
2300;DHT22;1158;48.750;9.078;2023-05-07T08:48:58;28.40;90.20
2300;DHT22;1158;48.750;9.078;2023-05-07T08:51:26;27.90;88.70
2300;DHT22;1158;48.750;9.078;2023-05-07T08:53:53;27.50;91.60
2300;DHT22;1158;48.750;9.078;2023-05-07T08:56:20;28.50;89.80
2300;DHT22;1158;48.750;9.078;2023-05-07T08:58:48;29.30;87.40
2300;DHT22;1158;48.750;9.078;2023-05-07T09:01:16;29.70;86.70
2300;DHT22;1158;48.750;9.078;2023-05-07T09:03:44;29.90;86.80
2300;DHT22;1158;48.750;9.078;2023-05-07T09:06:12;30.60;86.30
2300;DHT22;1158;48.750;9.078;2023-05-07T09:08:40;30.90;84.70
2300;DHT22;1158;48.750;9.078;2023-05-07T09:11:06;31.20;83.30
2300;DHT22;1158;48.750;9.078;2023-05-07T09:13:33;31.60;84.50
2300;DHT22;1158;48.750;9.078;2023-05-07T09:16:09;31.30;81.80
2300;DHT22;1158;48.750;9.078;2023-05-07T09:18:41;30.40;84.90
2300;DHT22;1158;48.750;9.078;2023-05-07T09:21:09;30.50;83.60
2300;DHT22;1158;48.750;9.078;2023-05-07T09:23:36;30.10;83.20
2300;DHT22;1158;48.750;9.078;2023-05-07T09:26:04;30.80;82.30
2300;DHT22;1158;48.750;9.078;2023-05-07T09:28:33;31.30;80.90
2300;DHT22;1158;48.750;9.078;2023-05-07T09:31:01;30.80;82.80
2300;DHT22;1158;48.750;9.078;2023-05-07T09:33:27;31.20;82.00
2300;DHT22;1158;48.750;9.078;2023-05-07T09:35:55;31.50;79.00
2300;DHT22;1158;48.750;9.078;2023-05-07T09:38:21;31.20;81.40
2300;DHT22;1158;48.750;9.078;2023-05-07T09:41:01;31.10;82.10
2300;DHT22;1158;48.750;9.078;2023-05-07T09:43:31;31.00;82.90
2300;DHT22;1158;48.750;9.078;2023-05-07T09:45:59;31.10;80.50
2300;DHT22;1158;48.750;9.078;2023-05-07T09:48:29;31.20;79.90
2300;DHT22;1158;48.750;9.078;2023-05-07T09:50:57;30.50;81.30
2300;DHT22;1158;48.750;9.078;2023-05-07T09:53:29;30.40;82.40
2300;DHT22;1158;48.750;9.078;2023-05-07T09:55:57;30.10;82.70
2300;DHT22;1158;48.750;9.078;2023-05-07T09:58:26;29.70;82.80
2300;DHT22;1158;48.750;9.078;2023-05-07T10:00:54;29.10;84.60
2300;DHT22;1158;48.750;9.078;2023-05-07T10:03:24;29.10;84.40
2300;DHT22;1158;48.750;9.078;2023-05-07T10:05:54;29.00;85.30
2300;DHT22;1158;48.750;9.078;2023-05-07T10:08:20;28.60;84.60
2300;DHT22;1158;48.750;9.078;2023-05-07T10:10:49;28.10;85.90
2300;DHT22;1158;48.750;9.078;2023-05-07T10:13:17;27.40;86.20
2300;DHT22;1158;48.750;9.078;2023-05-07T10:15:45;26.40;89.10
2300;DHT22;1158;48.750;9.078;2023-05-07T10:18:15;25.90;90.70
2300;DHT22;1158;48.750;9.078;2023-05-07T10:20:43;25.80;90.30
2300;DHT22;1158;48.750;9.078;2023-05-07T10:23:14;25.70;90.30
2300;DHT22;1158;48.750;9.078;2023-05-07T10:25:44;26.20;90.10
2300;DHT22;1158;48.750;9.078;2023-05-07T10:28:12;26.70;89.20
2300;DHT22;1158;48.750;9.078;2023-05-07T10:30:48;27.30;86.90
2300;DHT22;1158;48.750;9.078;2023-05-07T10:33:23;26.90;87.50
2300;DHT22;1158;48.750;9.078;2023-05-07T10:35:57;26.10;88.60
2300;DHT22;1158;48.750;9.078;2023-05-07T10:38:24;25.60;90.00
2300;DHT22;1158;48.750;9.078;2023-05-07T10:40:51;25.30;90.50
2300;DHT22;1158;48.750;9.078;2023-05-07T10:43:18;25.20;91.00
2300;DHT22;1158;48.750;9.078;2023-05-07T10:46:09;26.10;90.30
2300;DHT22;1158;48.750;9.078;2023-05-07T10:49:08;26.40;88.60
2300;DHT22;1158;48.750;9.078;2023-05-07T10:51:37;26.40;90.00
2300;DHT22;1158;48.750;9.078;2023-05-07T10:54:23;26.70;87.60
2300;DHT22;1158;48.750;9.078;2023-05-07T10:56:52;26.00;88.40
2300;DHT22;1158;48.750;9.078;2023-05-07T10:59:35;26.10;87.40
2300;DHT22;1158;48.750;9.078;2023-05-07T11:02:07;27.00;87.10
2300;DHT22;1158;48.750;9.078;2023-05-07T11:04:37;27.30;85.50
2300;DHT22;1158;48.750;9.078;2023-05-07T11:07:30;26.10;86.40
2300;DHT22;1158;48.750;9.078;2023-05-07T11:09:58;25.80;89.40
2300;DHT22;1158;48.750;9.078;2023-05-07T11:12:54;25.90;87.80
2300;DHT22;1158;48.750;9.078;2023-05-07T11:15:36;25.00;87.90
2300;DHT22;1158;48.750;9.078;2023-05-07T11:18:03;24.40;90.20
2300;DHT22;1158;48.750;9.078;2023-05-07T11:20:51;24.30;90.00
2300;DHT22;1158;48.750;9.078;2023-05-07T11:23:56;23.80;90.20
2300;DHT22;1158;48.750;9.078;2023-05-07T11:26:24;24.10;89.80
2300;DHT22;1158;48.750;9.078;2023-05-07T11:28:52;24.20;90.10
2300;DHT22;1158;48.750;9.078;2023-05-07T11:31:24;24.10;90.10
2300;DHT22;1158;48.750;9.078;2023-05-07T11:33:53;23.90;90.20
2300;DHT22;1158;48.750;9.078;2023-05-07T11:36:22;23.90;91.10
2300;DHT22;1158;48.750;9.078;2023-05-07T11:38:50;23.80;91.30
2300;DHT22;1158;48.750;9.078;2023-05-07T11:41:17;23.70;91.70
2300;DHT22;1158;48.750;9.078;2023-05-07T11:43:58;22.80;95.60
2300;DHT22;1158;48.750;9.078;2023-05-07T11:46:26;21.60;99.50
2300;DHT22;1158;48.750;9.078;2023-05-07T11:48:53;20.30;99.90
2300;DHT22;1158;48.750;9.078;2023-05-07T11:51:23;19.50;99.90
2300;DHT22;1158;48.750;9.078;2023-05-07T11:53:51;18.80;99.90
2300;DHT22;1158;48.750;9.078;2023-05-07T11:56:18;18.20;99.90
2300;DHT22;1158;48.750;9.078;2023-05-07T11:58:46;17.70;99.90
2300;DHT22;1158;48.750;9.078;2023-05-07T12:01:14;17.20;99.90
2300;DHT22;1158;48.750;9.078;2023-05-07T12:03:43;17.00;99.90
2300;DHT22;1158;48.750;9.078;2023-05-07T12:06:12;16.70;99.90
2300;DHT22;1158;48.750;9.078;2023-05-07T12:08:41;16.50;99.90
2300;DHT22;1158;48.750;9.078;2023-05-07T12:11:09;16.10;99.90
2300;DHT22;1158;48.750;9.078;2023-05-07T12:13:37;15.90;99.90
2300;DHT22;1158;48.750;9.078;2023-05-07T12:16:05;15.90;99.90
2300;DHT22;1158;48.750;9.078;2023-05-07T12:18:33;15.50;99.90
2300;DHT22;1158;48.750;9.078;2023-05-07T12:21:01;15.30;99.90
2300;DHT22;1158;48.750;9.078;2023-05-07T12:23:28;15.00;99.90
2300;DHT22;1158;48.750;9.078;2023-05-07T12:25:56;15.00;99.90
2300;DHT22;1158;48.750;9.078;2023-05-07T12:28:23;14.70;99.90
2300;DHT22;1158;48.750;9.078;2023-05-07T12:30:50;14.50;99.90
2300;DHT22;1158;48.750;9.078;2023-05-07T12:33:19;14.40;99.90
2300;DHT22;1158;48.750;9.078;2023-05-07T12:35:50;14.60;99.90
2300;DHT22;1158;48.750;9.078;2023-05-07T12:38:17;14.80;99.90
2300;DHT22;1158;48.750;9.078;2023-05-07T12:40:45;15.00;99.90
2300;DHT22;1158;48.750;9.078;2023-05-07T12:43:17;15.10;99.90
2300;DHT22;1158;48.750;9.078;2023-05-07T12:45:45;15.20;99.90
2300;DHT22;1158;48.750;9.078;2023-05-07T12:48:13;15.00;99.90
2300;DHT22;1158;48.750;9.078;2023-05-07T12:50:40;15.00;99.90
2300;DHT22;1158;48.750;9.078;2023-05-07T12:53:07;14.90;99.90
2300;DHT22;1158;48.750;9.078;2023-05-07T12:55:41;14.70;99.90
2300;DHT22;1158;48.750;9.078;2023-05-07T12:58:15;14.40;99.90
2300;DHT22;1158;48.750;9.078;2023-05-07T13:00:44;14.20;99.90
2300;DHT22;1158;48.750;9.078;2023-05-07T13:03:11;14.10;99.90
2300;DHT22;1158;48.750;9.078;2023-05-07T13:05:39;14.10;99.90
2300;DHT22;1158;48.750;9.078;2023-05-07T13:08:05;14.00;99.90
2300;DHT22;1158;48.750;9.078;2023-05-07T13:10:34;14.10;99.90
2300;DHT22;1158;48.750;9.078;2023-05-07T13:13:01;14.00;99.90
2300;DHT22;1158;48.750;9.078;2023-05-07T13:15:29;14.00;99.90
2300;DHT22;1158;48.750;9.078;2023-05-07T13:17:57;14.00;99.90
2300;DHT22;1158;48.750;9.078;2023-05-07T13:20:23;14.00;99.90
2300;DHT22;1158;48.750;9.078;2023-05-07T13:22:50;14.00;99.90
2300;DHT22;1158;48.750;9.078;2023-05-07T13:25:17;13.90;99.90
2300;DHT22;1158;48.750;9.078;2023-05-07T13:27:44;13.90;99.90
2300;DHT22;1158;48.750;9.078;2023-05-07T13:30:10;13.90;99.90
2300;DHT22;1158;48.750;9.078;2023-05-07T13:32:37;13.90;99.90
2300;DHT22;1158;48.750;9.078;2023-05-07T13:35:07;13.90;99.90
2300;DHT22;1158;48.750;9.078;2023-05-07T13:37:33;13.80;99.90
2300;DHT22;1158;48.750;9.078;2023-05-07T13:40:00;13.80;99.90
2300;DHT22;1158;48.750;9.078;2023-05-07T13:42:27;13.80;99.90
2300;DHT22;1158;48.750;9.078;2023-05-07T13:44:53;13.80;99.90
2300;DHT22;1158;48.750;9.078;2023-05-07T13:47:20;13.80;99.90
2300;DHT22;1158;48.750;9.078;2023-05-07T13:49:47;13.90;99.90
2300;DHT22;1158;48.750;9.078;2023-05-07T13:52:16;13.90;99.90
2300;DHT22;1158;48.750;9.078;2023-05-07T13:54:43;13.80;99.90
2300;DHT22;1158;48.750;9.078;2023-05-07T13:57:09;13.80;99.90
2300;DHT22;1158;48.750;9.078;2023-05-07T13:59:36;13.80;99.90
2300;DHT22;1158;48.750;9.078;2023-05-07T14:02:03;13.80;99.90
2300;DHT22;1158;48.750;9.078;2023-05-07T14:04:30;13.90;99.90
2300;DHT22;1158;48.750;9.078;2023-05-07T14:06:57;13.90;99.90
2300;DHT22;1158;48.750;9.078;2023-05-07T14:09:25;13.90;99.90
2300;DHT22;1158;48.750;9.078;2023-05-07T14:11:53;13.90;99.90
2300;DHT22;1158;48.750;9.078;2023-05-07T14:14:19;13.90;99.90
2300;DHT22;1158;48.750;9.078;2023-05-07T14:16:46;14.00;99.90
2300;DHT22;1158;48.750;9.078;2023-05-07T14:19:13;14.00;99.90
2300;DHT22;1158;48.750;9.078;2023-05-07T14:21:40;14.10;99.90
2300;DHT22;1158;48.750;9.078;2023-05-07T14:24:07;14.10;99.90
2300;DHT22;1158;48.750;9.078;2023-05-07T14:26:35;14.10;99.90
2300;DHT22;1158;48.750;9.078;2023-05-07T14:29:02;14.10;99.90
2300;DHT22;1158;48.750;9.078;2023-05-07T14:31:29;14.10;99.90
2300;DHT22;1158;48.750;9.078;2023-05-07T14:33:56;14.00;99.90
2300;DHT22;1158;48.750;9.078;2023-05-07T14:36:25;14.00;99.90
2300;DHT22;1158;48.750;9.078;2023-05-07T14:38:52;14.00;99.90
2300;DHT22;1158;48.750;9.078;2023-05-07T14:41:20;14.00;99.90
2300;DHT22;1158;48.750;9.078;2023-05-07T14:43:48;14.00;99.90
2300;DHT22;1158;48.750;9.078;2023-05-07T14:46:16;14.00;99.90
2300;DHT22;1158;48.750;9.078;2023-05-07T14:48:43;14.00;99.90
2300;DHT22;1158;48.750;9.078;2023-05-07T14:51:11;14.00;99.90
2300;DHT22;1158;48.750;9.078;2023-05-07T14:53:38;14.00;99.90
2300;DHT22;1158;48.750;9.078;2023-05-07T14:56:05;14.00;99.90
2300;DHT22;1158;48.750;9.078;2023-05-07T14:58:32;14.00;99.90
2300;DHT22;1158;48.750;9.078;2023-05-07T15:01:00;14.10;99.90
2300;DHT22;1158;48.750;9.078;2023-05-07T15:03:27;14.20;99.90
2300;DHT22;1158;48.750;9.078;2023-05-07T15:05:54;14.30;99.90
2300;DHT22;1158;48.750;9.078;2023-05-07T15:08:21;14.40;99.90
2300;DHT22;1158;48.750;9.078;2023-05-07T15:10:47;14.40;99.90
2300;DHT22;1158;48.750;9.078;2023-05-07T15:13:14;14.50;99.90
2300;DHT22;1158;48.750;9.078;2023-05-07T15:15:41;14.60;99.90
2300;DHT22;1158;48.750;9.078;2023-05-07T15:18:10;14.60;99.90
2300;DHT22;1158;48.750;9.078;2023-05-07T15:20:36;14.70;99.90
2300;DHT22;1158;48.750;9.078;2023-05-07T15:23:04;14.90;99.90
2300;DHT22;1158;48.750;9.078;2023-05-07T15:25:35;14.90;99.90
2300;DHT22;1158;48.750;9.078;2023-05-07T15:28:02;15.00;99.90
2300;DHT22;1158;48.750;9.078;2023-05-07T15:30:29;14.90;99.90
2300;DHT22;1158;48.750;9.078;2023-05-07T15:32:56;15.00;99.90
2300;DHT22;1158;48.750;9.078;2023-05-07T15:35:25;15.10;99.90
2300;DHT22;1158;48.750;9.078;2023-05-07T15:37:52;15.30;99.90
2300;DHT22;1158;48.750;9.078;2023-05-07T15:40:19;15.40;99.90
2300;DHT22;1158;48.750;9.078;2023-05-07T15:42:46;15.50;99.90
2300;DHT22;1158;48.750;9.078;2023-05-07T15:45:12;15.70;99.90
2300;DHT22;1158;48.750;9.078;2023-05-07T15:47:39;15.80;99.90
2300;DHT22;1158;48.750;9.078;2023-05-07T15:50:07;15.80;99.90
2300;DHT22;1158;48.750;9.078;2023-05-07T15:52:35;15.90;99.90
2300;DHT22;1158;48.750;9.078;2023-05-07T15:55:02;16.00;99.90
2300;DHT22;1158;48.750;9.078;2023-05-07T15:57:30;16.10;99.90
2300;DHT22;1158;48.750;9.078;2023-05-07T15:59:58;16.10;99.90
2300;DHT22;1158;48.750;9.078;2023-05-07T16:02:25;16.10;99.90
2300;DHT22;1158;48.750;9.078;2023-05-07T16:04:51;15.90;99.90
2300;DHT22;1158;48.750;9.078;2023-05-07T16:07:18;15.80;99.90
2300;DHT22;1158;48.750;9.078;2023-05-07T16:09:46;15.80;99.90
2300;DHT22;1158;48.750;9.078;2023-05-07T16:12:13;15.80;99.90